sensor_id;sensor_type;location;lat;lon;timestamp;temperature;humidity
31379;DHT22;61664;48.112;11.662;2022-08-21T00:00:20;19.50;87.10
31379;DHT22;61664;48.112;11.662;2022-08-21T00:02:55;19.50;86.80
31379;DHT22;61664;48.112;11.662;2022-08-21T00:05:35;19.50;87.00
31379;DHT22;61664;48.112;11.662;2022-08-21T00:08:05;19.50;85.90
31379;DHT22;61664;48.112;11.662;2022-08-21T00:10:32;19.40;86.60
31379;DHT22;61664;48.112;11.662;2022-08-21T00:13:01;19.40;86.60
31379;DHT22;61664;48.112;11.662;2022-08-21T00:15:31;19.40;86.60
31379;DHT22;61664;48.112;11.662;2022-08-21T00:18:00;19.40;86.50
31379;DHT22;61664;48.112;11.662;2022-08-21T00:20:27;19.30;86.50
31379;DHT22;61664;48.112;11.662;2022-08-21T00:22:54;19.30;86.50
31379;DHT22;61664;48.112;11.662;2022-08-21T00:25:23;19.30;86.50
31379;DHT22;61664;48.112;11.662;2022-08-21T00:27:52;19.30;86.50
31379;DHT22;61664;48.112;11.662;2022-08-21T00:30:21;19.20;86.40
31379;DHT22;61664;48.112;11.662;2022-08-21T00:32:51;19.20;86.30
31379;DHT22;61664;48.112;11.662;2022-08-21T00:35:23;19.20;86.30
31379;DHT22;61664;48.112;11.662;2022-08-21T00:37:53;19.20;86.00
31379;DHT22;61664;48.112;11.662;2022-08-21T00:40:25;19.20;86.20
31379;DHT22;61664;48.112;11.662;2022-08-21T00:42:55;19.20;85.80
31379;DHT22;61664;48.112;11.662;2022-08-21T00:45:23;19.10;86.00
31379;DHT22;61664;48.112;11.662;2022-08-21T00:47:52;19.10;86.00
31379;DHT22;61664;48.112;11.662;2022-08-21T00:50:22;19.10;86.00
31379;DHT22;61664;48.112;11.662;2022-08-21T00:52:52;19.10;86.10
31379;DHT22;61664;48.112;11.662;2022-08-21T00:55:20;19.10;86.10
31379;DHT22;61664;48.112;11.662;2022-08-21T00:57:52;19.00;86.10
31379;DHT22;61664;48.112;11.662;2022-08-21T01:00:26;19.00;85.90
31379;DHT22;61664;48.112;11.662;2022-08-21T01:02:57;19.00;86.10
31379;DHT22;61664;48.112;11.662;2022-08-21T01:05:26;19.00;85.90
31379;DHT22;61664;48.112;11.662;2022-08-21T01:07:54;18.90;85.80
31379;DHT22;61664;48.112;11.662;2022-08-21T01:10:24;18.90;85.80
31379;DHT22;61664;48.112;11.662;2022-08-21T01:12:53;18.90;85.80
31379;DHT22;61664;48.112;11.662;2022-08-21T01:15:26;18.80;85.60
31379;DHT22;61664;48.112;11.662;2022-08-21T01:17:57;18.80;85.50
31379;DHT22;61664;48.112;11.662;2022-08-21T01:20:25;18.80;85.70
31379;DHT22;61664;48.112;11.662;2022-08-21T01:22:59;18.80;85.70
31379;DHT22;61664;48.112;11.662;2022-08-21T01:25:27;18.70;85.70
31379;DHT22;61664;48.112;11.662;2022-08-21T01:27:54;18.70;85.70
31379;DHT22;61664;48.112;11.662;2022-08-21T01:30:25;18.70;85.70
31379;DHT22;61664;48.112;11.662;2022-08-21T01:32:53;18.70;85.50
31379;DHT22;61664;48.112;11.662;2022-08-21T01:35:22;18.70;84.10
31379;DHT22;61664;48.112;11.662;2022-08-21T01:37:49;18.70;85.40
31379;DHT22;61664;48.112;11.662;2022-08-21T01:40:17;18.60;85.40
31379;DHT22;61664;48.112;11.662;2022-08-21T01:42:46;18.60;85.40
31379;DHT22;61664;48.112;11.662;2022-08-21T01:45:13;18.50;85.40
31379;DHT22;61664;48.112;11.662;2022-08-21T01:47:43;18.50;85.50
31379;DHT22;61664;48.112;11.662;2022-08-21T01:50:14;18.50;85.50
31379;DHT22;61664;48.112;11.662;2022-08-21T01:52:44;18.50;85.40
31379;DHT22;61664;48.112;11.662;2022-08-21T01:55:13;18.50;85.50
31379;DHT22;61664;48.112;11.662;2022-08-21T01:57:43;18.40;85.40
31379;DHT22;61664;48.112;11.662;2022-08-21T02:00:13;18.40;85.40
31379;DHT22;61664;48.112;11.662;2022-08-21T02:02:43;18.40;85.40
31379;DHT22;61664;48.112;11.662;2022-08-21T02:05:11;18.30;85.40
31379;DHT22;61664;48.112;11.662;2022-08-21T02:07:41;18.30;85.40
31379;DHT22;61664;48.112;11.662;2022-08-21T02:10:14;18.30;85.40
31379;DHT22;61664;48.112;11.662;2022-08-21T02:12:43;18.30;85.20
31379;DHT22;61664;48.112;11.662;2022-08-21T02:15:10;18.30;85.50
31379;DHT22;61664;48.112;11.662;2022-08-21T02:17:40;18.30;85.60
31379;DHT22;61664;48.112;11.662;2022-08-21T02:20:15;18.20;85.30
31379;DHT22;61664;48.112;11.662;2022-08-21T02:22:49;18.20;85.50
31379;DHT22;61664;48.112;11.662;2022-08-21T02:25:17;18.20;85.60
31379;DHT22;61664;48.112;11.662;2022-08-21T02:27:46;18.20;85.60
31379;DHT22;61664;48.112;11.662;2022-08-21T02:30:27;18.20;85.60
31379;DHT22;61664;48.112;11.662;2022-08-21T02:32:57;18.20;84.50
31379;DHT22;61664;48.112;11.662;2022-08-21T02:35:25;18.10;85.50
31379;DHT22;61664;48.112;11.662;2022-08-21T02:37:55;18.10;85.40
31379;DHT22;61664;48.112;11.662;2022-08-21T02:40:28;18.10;85.30
31379;DHT22;61664;48.112;11.662;2022-08-21T02:42:58;18.10;85.20
31379;DHT22;61664;48.112;11.662;2022-08-21T02:45:26;18.10;85.40
31379;DHT22;61664;48.112;11.662;2022-08-21T02:47:58;18.10;85.50
31379;DHT22;61664;48.112;11.662;2022-08-21T02:50:39;18.10;85.20
31379;DHT22;61664;48.112;11.662;2022-08-21T02:53:13;18.10;84.30
31379;DHT22;61664;48.112;11.662;2022-08-21T02:55:48;18.10;85.30
31379;DHT22;61664;48.112;11.662;2022-08-21T02:58:20;18.00;84.90
31379;DHT22;61664;48.112;11.662;2022-08-21T03:00:50;18.00;85.30
31379;DHT22;61664;48.112;11.662;2022-08-21T03:03:18;18.00;85.40
31379;DHT22;61664;48.112;11.662;2022-08-21T03:05:45;18.00;85.50
31379;DHT22;61664;48.112;11.662;2022-08-21T03:08:13;18.00;85.50
31379;DHT22;61664;48.112;11.662;2022-08-21T03:10:47;18.00;85.50
31379;DHT22;61664;48.112;11.662;2022-08-21T03:13:18;18.00;85.30
31379;DHT22;61664;48.112;11.662;2022-08-21T03:15:49;17.90;85.40
31379;DHT22;61664;48.112;11.662;2022-08-21T03:18:17;17.90;85.40
31379;DHT22;61664;48.112;11.662;2022-08-21T03:20:44;17.90;85.30
31379;DHT22;61664;48.112;11.662;2022-08-21T03:23:13;17.90;85.30
31379;DHT22;61664;48.112;11.662;2022-08-21T03:25:45;17.90;85.30
31379;DHT22;61664;48.112;11.662;2022-08-21T03:28:19;17.90;85.20
31379;DHT22;61664;48.112;11.662;2022-08-21T03:30:49;17.90;85.00
31379;DHT22;61664;48.112;11.662;2022-08-21T03:33:18;17.90;85.20
31379;DHT22;61664;48.112;11.662;2022-08-21T03:35:48;17.90;85.20
31379;DHT22;61664;48.112;11.662;2022-08-21T03:38:23;17.90;85.10
31379;DHT22;61664;48.112;11.662;2022-08-21T03:40:53;17.80;85.20
31379;DHT22;61664;48.112;11.662;2022-08-21T03:43:20;17.80;85.10
31379;DHT22;61664;48.112;11.662;2022-08-21T03:45:47;17.80;85.10
31379;DHT22;61664;48.112;11.662;2022-08-21T03:48:17;17.80;85.20
31379;DHT22;61664;48.112;11.662;2022-08-21T03:50:44;17.80;85.20
31379;DHT22;61664;48.112;11.662;2022-08-21T03:53:14;17.80;85.20
31379;DHT22;61664;48.112;11.662;2022-08-21T03:55:44;17.80;85.30
31379;DHT22;61664;48.112;11.662;2022-08-21T03:58:14;17.70;85.20
31379;DHT22;61664;48.112;11.662;2022-08-21T04:00:47;17.70;85.20
31379;DHT22;61664;48.112;11.662;2022-08-21T04:03:17;17.70;84.80
31379;DHT22;61664;48.112;11.662;2022-08-21T04:05:46;17.70;85.20
31379;DHT22;61664;48.112;11.662;2022-08-21T04:08:14;17.70;85.10
31379;DHT22;61664;48.112;11.662;2022-08-21T04:10:47;17.70;85.10
31379;DHT22;61664;48.112;11.662;2022-08-21T04:13:16;17.70;84.90
31379;DHT22;61664;48.112;11.662;2022-08-21T04:15:43;17.70;85.10
31379;DHT22;61664;48.112;11.662;2022-08-21T04:18:10;17.70;85.10
31379;DHT22;61664;48.112;11.662;2022-08-21T04:20:38;17.60;85.00
31379;DHT22;61664;48.112;11.662;2022-08-21T04:23:10;17.60;84.90
31379;DHT22;61664;48.112;11.662;2022-08-21T04:25:49;17.60;85.20
31379;DHT22;61664;48.112;11.662;2022-08-21T04:28:16;17.60;85.00
31379;DHT22;61664;48.112;11.662;2022-08-21T04:30:44;17.60;85.00
31379;DHT22;61664;48.112;11.662;2022-08-21T04:33:11;17.60;85.00
31379;DHT22;61664;48.112;11.662;2022-08-21T04:35:39;17.60;85.10
31379;DHT22;61664;48.112;11.662;2022-08-21T04:38:05;17.60;85.30
31379;DHT22;61664;48.112;11.662;2022-08-21T04:40:32;17.50;85.40
31379;DHT22;61664;48.112;11.662;2022-08-21T04:43:09;17.60;85.50
31379;DHT22;61664;48.112;11.662;2022-08-21T04:45:42;17.60;84.60
31379;DHT22;61664;48.112;11.662;2022-08-21T04:48:12;17.60;85.40
31379;DHT22;61664;48.112;11.662;2022-08-21T04:54:01;17.60;84.40
31379;DHT22;61664;48.112;11.662;2022-08-21T04:56:45;17.60;85.10
31379;DHT22;61664;48.112;11.662;2022-08-21T04:59:21;17.60;84.40
31379;DHT22;61664;48.112;11.662;2022-08-21T05:01:52;17.60;85.30
31379;DHT22;61664;48.112;11.662;2022-08-21T05:04:26;17.60;85.70
31379;DHT22;61664;48.112;11.662;2022-08-21T05:06:58;17.60;85.70
31379;DHT22;61664;48.112;11.662;2022-08-21T05:09:28;17.60;86.40
31379;DHT22;61664;48.112;11.662;2022-08-21T05:11:56;17.60;86.30
31379;DHT22;61664;48.112;11.662;2022-08-21T05:14:24;17.60;86.50
31379;DHT22;61664;48.112;11.662;2022-08-21T05:16:53;17.70;86.70
31379;DHT22;61664;48.112;11.662;2022-08-21T05:19:20;17.70;86.90
31379;DHT22;61664;48.112;11.662;2022-08-21T05:21:47;17.70;87.00
31379;DHT22;61664;48.112;11.662;2022-08-21T05:24:14;17.80;87.10
31379;DHT22;61664;48.112;11.662;2022-08-21T05:26:42;17.80;87.30
31379;DHT22;61664;48.112;11.662;2022-08-21T05:29:12;17.90;87.60
31379;DHT22;61664;48.112;11.662;2022-08-21T05:31:42;18.00;88.00
31379;DHT22;61664;48.112;11.662;2022-08-21T05:34:11;18.00;88.00
31379;DHT22;61664;48.112;11.662;2022-08-21T05:36:41;18.10;88.20
31379;DHT22;61664;48.112;11.662;2022-08-21T05:39:08;18.20;88.20
31379;DHT22;61664;48.112;11.662;2022-08-21T05:41:35;18.20;88.20
31379;DHT22;61664;48.112;11.662;2022-08-21T05:44:02;18.30;88.00
31379;DHT22;61664;48.112;11.662;2022-08-21T05:46:35;18.40;88.00
31379;DHT22;61664;48.112;11.662;2022-08-21T05:49:03;18.40;87.70
31379;DHT22;61664;48.112;11.662;2022-08-21T05:51:30;18.50;87.70
31379;DHT22;61664;48.112;11.662;2022-08-21T05:53:57;18.60;87.70
31379;DHT22;61664;48.112;11.662;2022-08-21T05:56:24;18.60;87.30
31379;DHT22;61664;48.112;11.662;2022-08-21T05:58:51;18.70;87.30
31379;DHT22;61664;48.112;11.662;2022-08-21T06:01:18;18.70;87.20
31379;DHT22;61664;48.112;11.662;2022-08-21T06:03:45;18.80;86.90
31379;DHT22;61664;48.112;11.662;2022-08-21T06:06:12;18.80;86.70
31379;DHT22;61664;48.112;11.662;2022-08-21T06:08:39;18.90;86.80
31379;DHT22;61664;48.112;11.662;2022-08-21T06:11:07;18.90;87.00
31379;DHT22;61664;48.112;11.662;2022-08-21T06:13:36;19.00;86.70
31379;DHT22;61664;48.112;11.662;2022-08-21T06:16:06;19.00;86.50
31379;DHT22;61664;48.112;11.662;2022-08-21T06:18:36;19.10;86.20
31379;DHT22;61664;48.112;11.662;2022-08-21T06:21:04;19.10;86.50
31379;DHT22;61664;48.112;11.662;2022-08-21T06:23:32;19.20;86.50
31379;DHT22;61664;48.112;11.662;2022-08-21T06:26:05;19.20;86.50
31379;DHT22;61664;48.112;11.662;2022-08-21T06:28:34;19.30;85.20
31379;DHT22;61664;48.112;11.662;2022-08-21T06:31:19;19.40;86.50
31379;DHT22;61664;48.112;11.662;2022-08-21T06:33:49;19.40;84.50
31379;DHT22;61664;48.112;11.662;2022-08-21T06:36:17;19.40;86.70
31379;DHT22;61664;48.112;11.662;2022-08-21T06:38:45;19.50;86.70
31379;DHT22;61664;48.112;11.662;2022-08-21T06:41:18;19.60;86.80
31379;DHT22;61664;48.112;11.662;2022-08-21T06:43:52;19.60;86.40
31379;DHT22;61664;48.112;11.662;2022-08-21T06:46:20;19.70;86.40
31379;DHT22;61664;48.112;11.662;2022-08-21T06:48:48;19.80;86.40
31379;DHT22;61664;48.112;11.662;2022-08-21T06:51:15;19.80;86.60
31379;DHT22;61664;48.112;11.662;2022-08-21T06:53:42;19.90;87.10
31379;DHT22;61664;48.112;11.662;2022-08-21T06:56:10;20.00;87.00
31379;DHT22;61664;48.112;11.662;2022-08-21T06:58:37;20.10;86.90
31379;DHT22;61664;48.112;11.662;2022-08-21T07:01:04;20.10;86.40
31379;DHT22;61664;48.112;11.662;2022-08-21T07:03:37;20.20;86.60
31379;DHT22;61664;48.112;11.662;2022-08-21T07:06:07;20.30;84.70
31379;DHT22;61664;48.112;11.662;2022-08-21T07:08:36;20.40;85.50
31379;DHT22;61664;48.112;11.662;2022-08-21T07:11:09;20.50;85.40
31379;DHT22;61664;48.112;11.662;2022-08-21T07:13:41;20.50;83.10
31379;DHT22;61664;48.112;11.662;2022-08-21T07:16:08;20.60;83.80
31379;DHT22;61664;48.112;11.662;2022-08-21T07:18:35;20.70;84.10
31379;DHT22;61664;48.112;11.662;2022-08-21T07:21:03;20.70;83.30
31379;DHT22;61664;48.112;11.662;2022-08-21T07:23:36;20.80;82.30
31379;DHT22;61664;48.112;11.662;2022-08-21T07:26:07;20.80;81.50
31379;DHT22;61664;48.112;11.662;2022-08-21T07:28:35;20.90;82.00
31379;DHT22;61664;48.112;11.662;2022-08-21T07:31:03;20.90;81.80
31379;DHT22;61664;48.112;11.662;2022-08-21T07:33:33;21.00;81.60
31379;DHT22;61664;48.112;11.662;2022-08-21T07:36:00;21.00;81.40
31379;DHT22;61664;48.112;11.662;2022-08-21T07:38:28;21.10;81.70
31379;DHT22;61664;48.112;11.662;2022-08-21T07:40:56;21.20;82.30
31379;DHT22;61664;48.112;11.662;2022-08-21T07:43:26;21.20;82.30
31379;DHT22;61664;48.112;11.662;2022-08-21T07:45:54;21.30;82.50
31379;DHT22;61664;48.112;11.662;2022-08-21T07:48:22;21.40;82.20
31379;DHT22;61664;48.112;11.662;2022-08-21T07:50:50;21.50;82.50
31379;DHT22;61664;48.112;11.662;2022-08-21T07:53:17;21.60;81.90
31379;DHT22;61664;48.112;11.662;2022-08-21T07:55:44;21.70;81.30
31379;DHT22;61664;48.112;11.662;2022-08-21T07:58:11;21.80;81.70
31379;DHT22;61664;48.112;11.662;2022-08-21T08:00:39;21.90;82.50
31379;DHT22;61664;48.112;11.662;2022-08-21T08:03:07;22.00;82.10
31379;DHT22;61664;48.112;11.662;2022-08-21T08:05:36;22.20;82.60
31379;DHT22;61664;48.112;11.662;2022-08-21T08:08:04;22.30;82.00
31379;DHT22;61664;48.112;11.662;2022-08-21T08:10:31;22.40;82.30
31379;DHT22;61664;48.112;11.662;2022-08-21T08:12:59;22.60;82.10
31379;DHT22;61664;48.112;11.662;2022-08-21T08:15:27;22.70;82.90
31379;DHT22;61664;48.112;11.662;2022-08-21T08:17:57;22.90;84.00
31379;DHT22;61664;48.112;11.662;2022-08-21T08:20:25;23.10;88.40
31379;DHT22;61664;48.112;11.662;2022-08-21T08:22:56;23.30;90.30
31379;DHT22;61664;48.112;11.662;2022-08-21T08:25:24;23.50;90.40
31379;DHT22;61664;48.112;11.662;2022-08-21T08:28:03;23.90;89.00
31379;DHT22;61664;48.112;11.662;2022-08-21T08:30:44;24.30;87.80
31379;DHT22;61664;48.112;11.662;2022-08-21T08:33:12;24.70;89.20
31379;DHT22;61664;48.112;11.662;2022-08-21T08:35:44;25.10;89.80
31379;DHT22;61664;48.112;11.662;2022-08-21T08:38:14;25.60;86.50
31379;DHT22;61664;48.112;11.662;2022-08-21T08:41:01;26.10;88.20
31379;DHT22;61664;48.112;11.662;2022-08-21T08:43:35;26.60;74.00
31379;DHT22;61664;48.112;11.662;2022-08-21T08:46:06;27.10;85.50
31379;DHT22;61664;48.112;11.662;2022-08-21T08:49:09;27.50;80.60
31379;DHT22;61664;48.112;11.662;2022-08-21T08:51:48;27.90;72.50
31379;DHT22;61664;48.112;11.662;2022-08-21T08:57:22;28.60;74.00
31379;DHT22;61664;48.112;11.662;2022-08-21T08:59:59;28.90;72.60
31379;DHT22;61664;48.112;11.662;2022-08-21T09:02:29;29.20;67.20
31379;DHT22;61664;48.112;11.662;2022-08-21T09:04:56;29.40;75.10
31379;DHT22;61664;48.112;11.662;2022-08-21T09:10:20;29.70;62.10
31379;DHT22;61664;48.112;11.662;2022-08-21T09:15:55;30.10;68.90
31379;DHT22;61664;48.112;11.662;2022-08-21T09:27:07;31.20;58.10
31379;DHT22;61664;48.112;11.662;2022-08-21T09:29:43;31.40;69.10
31379;DHT22;61664;48.112;11.662;2022-08-21T09:32:19;31.70;66.60
31379;DHT22;61664;48.112;11.662;2022-08-21T09:35:12;31.90;63.10
31379;DHT22;61664;48.112;11.662;2022-08-21T09:40:46;32.00;65.20
31379;DHT22;61664;48.112;11.662;2022-08-21T09:43:24;32.10;70.60
31379;DHT22;61664;48.112;11.662;2022-08-21T09:46:22;32.40;72.00
31379;DHT22;61664;48.112;11.662;2022-08-21T09:48:54;32.50;60.50
31379;DHT22;61664;48.112;11.662;2022-08-21T09:51:29;32.50;64.60
31379;DHT22;61664;48.112;11.662;2022-08-21T09:54:12;32.20;61.80
31379;DHT22;61664;48.112;11.662;2022-08-21T09:57:19;31.80;57.90
31379;DHT22;61664;48.112;11.662;2022-08-21T10:02:49;31.30;59.80
31379;DHT22;61664;48.112;11.662;2022-08-21T10:05:26;31.10;65.90
31379;DHT22;61664;48.112;11.662;2022-08-21T10:07:55;30.90;58.10
31379;DHT22;61664;48.112;11.662;2022-08-21T10:10:36;30.50;63.30
31379;DHT22;61664;48.112;11.662;2022-08-21T10:21:24;29.60;67.50
31379;DHT22;61664;48.112;11.662;2022-08-21T10:24:22;29.80;63.70
31379;DHT22;61664;48.112;11.662;2022-08-21T10:30:00;30.10;66.00
31379;DHT22;61664;48.112;11.662;2022-08-21T10:41:52;29.90;62.00
31379;DHT22;61664;48.112;11.662;2022-08-21T10:44:44;30.20;61.20
31379;DHT22;61664;48.112;11.662;2022-08-21T10:50:33;30.40;60.30
31379;DHT22;61664;48.112;11.662;2022-08-21T10:53:36;30.30;59.10
31379;DHT22;61664;48.112;11.662;2022-08-21T10:56:14;30.20;58.90
31379;DHT22;61664;48.112;11.662;2022-08-21T10:58:50;29.90;59.00
31379;DHT22;61664;48.112;11.662;2022-08-21T11:01:54;29.70;63.20
31379;DHT22;61664;48.112;11.662;2022-08-21T11:04:41;29.50;62.90
31379;DHT22;61664;48.112;11.662;2022-08-21T11:07:37;29.30;61.00
31379;DHT22;61664;48.112;11.662;2022-08-21T11:10:48;29.10;62.50
31379;DHT22;61664;48.112;11.662;2022-08-21T11:13:47;29.10;67.20
31379;DHT22;61664;48.112;11.662;2022-08-21T11:16:28;29.40;60.50
31379;DHT22;61664;48.112;11.662;2022-08-21T11:22:18;30.50;67.60
31379;DHT22;61664;48.112;11.662;2022-08-21T11:25:15;31.20;65.50
31379;DHT22;61664;48.112;11.662;2022-08-21T11:27:55;31.70;65.90
31379;DHT22;61664;48.112;11.662;2022-08-21T11:30:38;32.10;58.40
31379;DHT22;61664;48.112;11.662;2022-08-21T11:34:02;32.20;58.30
31379;DHT22;61664;48.112;11.662;2022-08-21T11:36:54;32.10;56.40
31379;DHT22;61664;48.112;11.662;2022-08-21T11:39:53;31.90;55.70
31379;DHT22;61664;48.112;11.662;2022-08-21T11:42:41;31.60;55.40
31379;DHT22;61664;48.112;11.662;2022-08-21T11:45:47;31.30;54.60
31379;DHT22;61664;48.112;11.662;2022-08-21T11:57:03;30.10;54.60
31379;DHT22;61664;48.112;11.662;2022-08-21T12:00:10;30.00;58.50
31379;DHT22;61664;48.112;11.662;2022-08-21T12:02:48;29.60;55.20
31379;DHT22;61664;48.112;11.662;2022-08-21T12:05:31;29.40;54.80
31379;DHT22;61664;48.112;11.662;2022-08-21T12:08:12;29.10;52.50
31379;DHT22;61664;48.112;11.662;2022-08-21T12:10:47;28.90;57.10
31379;DHT22;61664;48.112;11.662;2022-08-21T12:13:29;28.70;55.10
31379;DHT22;61664;48.112;11.662;2022-08-21T12:16:08;28.60;56.50
31379;DHT22;61664;48.112;11.662;2022-08-21T12:18:43;28.50;55.70
31379;DHT22;61664;48.112;11.662;2022-08-21T12:21:21;28.40;56.30
31379;DHT22;61664;48.112;11.662;2022-08-21T12:24:01;28.20;51.90
31379;DHT22;61664;48.112;11.662;2022-08-21T12:34:42;28.00;58.10
31379;DHT22;61664;48.112;11.662;2022-08-21T12:40:21;28.20;56.60
31379;DHT22;61664;48.112;11.662;2022-08-21T12:42:54;28.30;56.60
31379;DHT22;61664;48.112;11.662;2022-08-21T12:45:39;28.40;57.40
31379;DHT22;61664;48.112;11.662;2022-08-21T12:50:56;28.30;58.10
31379;DHT22;61664;48.112;11.662;2022-08-21T12:53:32;28.30;57.10
31379;DHT22;61664;48.112;11.662;2022-08-21T12:56:10;28.30;58.50
31379;DHT22;61664;48.112;11.662;2022-08-21T12:58:43;28.30;56.10
31379;DHT22;61664;48.112;11.662;2022-08-21T13:01:33;28.30;58.80
31379;DHT22;61664;48.112;11.662;2022-08-21T13:04:10;28.40;56.90
31379;DHT22;61664;48.112;11.662;2022-08-21T13:06:43;28.60;58.60
31379;DHT22;61664;48.112;11.662;2022-08-21T13:09:16;28.60;58.00
31379;DHT22;61664;48.112;11.662;2022-08-21T13:11:47;28.70;57.80
31379;DHT22;61664;48.112;11.662;2022-08-21T13:16:57;28.90;55.60
31379;DHT22;61664;48.112;11.662;2022-08-21T13:19:26;28.90;58.40
31379;DHT22;61664;48.112;11.662;2022-08-21T13:21:56;29.10;57.90
31379;DHT22;61664;48.112;11.662;2022-08-21T13:24:28;29.20;57.70
31379;DHT22;61664;48.112;11.662;2022-08-21T13:27:20;29.20;55.00
31379;DHT22;61664;48.112;11.662;2022-08-21T13:30:17;29.40;54.50
31379;DHT22;61664;48.112;11.662;2022-08-21T13:32:57;29.50;53.70
31379;DHT22;61664;48.112;11.662;2022-08-21T13:35:44;29.80;57.50
31379;DHT22;61664;48.112;11.662;2022-08-21T13:38:20;30.00;55.80
31379;DHT22;61664;48.112;11.662;2022-08-21T13:40:56;30.00;55.80
31379;DHT22;61664;48.112;11.662;2022-08-21T13:43:30;30.00;55.40
31379;DHT22;61664;48.112;11.662;2022-08-21T13:46:00;30.00;55.50
31379;DHT22;61664;48.112;11.662;2022-08-21T13:48:34;29.90;55.50
31379;DHT22;61664;48.112;11.662;2022-08-21T13:51:03;29.80;55.40
31379;DHT22;61664;48.112;11.662;2022-08-21T13:56:02;29.70;54.00
31379;DHT22;61664;48.112;11.662;2022-08-21T13:58:42;29.60;55.10
31379;DHT22;61664;48.112;11.662;2022-08-21T14:04:06;29.70;52.40
31379;DHT22;61664;48.112;11.662;2022-08-21T14:06:41;29.90;55.80
31379;DHT22;61664;48.112;11.662;2022-08-21T14:09:21;30.20;57.70
31379;DHT22;61664;48.112;11.662;2022-08-21T14:11:56;30.50;52.80
31379;DHT22;61664;48.112;11.662;2022-08-21T14:14:29;30.70;54.80
31379;DHT22;61664;48.112;11.662;2022-08-21T14:17:03;30.80;54.20
31379;DHT22;61664;48.112;11.662;2022-08-21T14:19:52;31.00;55.40
31379;DHT22;61664;48.112;11.662;2022-08-21T14:27:35;33.20;59.10
31379;DHT22;61664;48.112;11.662;2022-08-21T14:32:54;35.50;56.20
31379;DHT22;61664;48.112;11.662;2022-08-21T14:35:22;36.50;62.30
31379;DHT22;61664;48.112;11.662;2022-08-21T14:37:50;37.60;59.70
31379;DHT22;61664;48.112;11.662;2022-08-21T14:40:20;38.60;58.40
31379;DHT22;61664;48.112;11.662;2022-08-21T14:42:49;39.50;56.90
31379;DHT22;61664;48.112;11.662;2022-08-21T14:45:28;40.10;54.10
31379;DHT22;61664;48.112;11.662;2022-08-21T14:47:57;40.50;49.70
31379;DHT22;61664;48.112;11.662;2022-08-21T14:50:25;40.80;49.60
31379;DHT22;61664;48.112;11.662;2022-08-21T14:52:54;41.00;49.80
31379;DHT22;61664;48.112;11.662;2022-08-21T14:55:21;41.40;49.50
31379;DHT22;61664;48.112;11.662;2022-08-21T14:57:51;41.70;47.80
31379;DHT22;61664;48.112;11.662;2022-08-21T15:00:23;41.70;44.50
31379;DHT22;61664;48.112;11.662;2022-08-21T15:03:01;41.30;43.20
31379;DHT22;61664;48.112;11.662;2022-08-21T15:05:28;40.80;43.30
31379;DHT22;61664;48.112;11.662;2022-08-21T15:08:00;40.10;42.80
31379;DHT22;61664;48.112;11.662;2022-08-21T15:10:28;39.70;44.60
31379;DHT22;61664;48.112;11.662;2022-08-21T15:12:57;39.50;45.40
31379;DHT22;61664;48.112;11.662;2022-08-21T15:15:24;39.40;44.60
31379;DHT22;61664;48.112;11.662;2022-08-21T15:17:51;39.00;42.80
31379;DHT22;61664;48.112;11.662;2022-08-21T15:20:18;38.60;43.00
31379;DHT22;61664;48.112;11.662;2022-08-21T15:22:45;38.40;44.20
31379;DHT22;61664;48.112;11.662;2022-08-21T15:25:13;38.30;44.40
31379;DHT22;61664;48.112;11.662;2022-08-21T15:27:41;38.40;44.00
31379;DHT22;61664;48.112;11.662;2022-08-21T15:30:08;38.50;44.90
31379;DHT22;61664;48.112;11.662;2022-08-21T15:32:36;38.70;45.50
31379;DHT22;61664;48.112;11.662;2022-08-21T15:35:05;39.10;45.60
31379;DHT22;61664;48.112;11.662;2022-08-21T15:37:32;39.50;45.80
31379;DHT22;61664;48.112;11.662;2022-08-21T15:39:59;39.90;45.30
31379;DHT22;61664;48.112;11.662;2022-08-21T15:42:27;40.30;45.10
31379;DHT22;61664;48.112;11.662;2022-08-21T15:44:55;40.70;44.70
31379;DHT22;61664;48.112;11.662;2022-08-21T15:47:32;41.10;44.80
31379;DHT22;61664;48.112;11.662;2022-08-21T15:50:04;41.40;39.30
31379;DHT22;61664;48.112;11.662;2022-08-21T15:52:33;41.70;42.60
31379;DHT22;61664;48.112;11.662;2022-08-21T15:55:01;41.80;41.50
31379;DHT22;61664;48.112;11.662;2022-08-21T15:57:28;41.80;40.80
31379;DHT22;61664;48.112;11.662;2022-08-21T16:00:01;41.70;40.50
31379;DHT22;61664;48.112;11.662;2022-08-21T16:02:44;41.70;37.30
31379;DHT22;61664;48.112;11.662;2022-08-21T16:05:14;41.60;40.00
31379;DHT22;61664;48.112;11.662;2022-08-21T16:07:44;41.50;40.50
31379;DHT22;61664;48.112;11.662;2022-08-21T16:10:13;41.10;40.00
31379;DHT22;61664;48.112;11.662;2022-08-21T16:12:47;40.90;40.60
31379;DHT22;61664;48.112;11.662;2022-08-21T16:15:17;40.70;37.00
31379;DHT22;61664;48.112;11.662;2022-08-21T16:17:47;40.60;40.30
31379;DHT22;61664;48.112;11.662;2022-08-21T16:20:17;40.50;40.90
31379;DHT22;61664;48.112;11.662;2022-08-21T16:22:47;40.50;42.90
31379;DHT22;61664;48.112;11.662;2022-08-21T16:25:15;40.60;42.80
31379;DHT22;61664;48.112;11.662;2022-08-21T16:27:46;40.70;42.00
31379;DHT22;61664;48.112;11.662;2022-08-21T16:30:19;40.70;40.20
31379;DHT22;61664;48.112;11.662;2022-08-21T16:32:47;40.70;39.70
31379;DHT22;61664;48.112;11.662;2022-08-21T16:35:17;40.50;38.80
31379;DHT22;61664;48.112;11.662;2022-08-21T16:37:46;40.10;37.00
31379;DHT22;61664;48.112;11.662;2022-08-21T16:40:19;39.60;38.20
31379;DHT22;61664;48.112;11.662;2022-08-21T16:42:49;39.40;38.80
31379;DHT22;61664;48.112;11.662;2022-08-21T16:45:17;39.10;39.30
31379;DHT22;61664;48.112;11.662;2022-08-21T16:47:46;39.00;39.00
31379;DHT22;61664;48.112;11.662;2022-08-21T16:50:22;39.00;39.80
31379;DHT22;61664;48.112;11.662;2022-08-21T16:52:50;39.00;40.00
31379;DHT22;61664;48.112;11.662;2022-08-21T16:55:17;39.00;39.90
31379;DHT22;61664;48.112;11.662;2022-08-21T16:57:44;39.00;38.90
31379;DHT22;61664;48.112;11.662;2022-08-21T17:00:11;38.80;38.20
31379;DHT22;61664;48.112;11.662;2022-08-21T17:02:44;38.70;38.00
31379;DHT22;61664;48.112;11.662;2022-08-21T17:05:14;38.30;35.30
31379;DHT22;61664;48.112;11.662;2022-08-21T17:07:42;37.90;37.70
31379;DHT22;61664;48.112;11.662;2022-08-21T17:10:12;37.40;38.00
31379;DHT22;61664;48.112;11.662;2022-08-21T17:12:42;36.80;37.60
31379;DHT22;61664;48.112;11.662;2022-08-21T17:15:19;36.30;37.30
31379;DHT22;61664;48.112;11.662;2022-08-21T17:17:50;35.70;37.60
31379;DHT22;61664;48.112;11.662;2022-08-21T17:20:19;35.10;38.30